sensor_id;sensor_type;location;lat;lon;timestamp;pressure;altitude;pressure_sealevel;temperature;humidity
4858;BME280;58975;51.978;8.472;2023-07-30T00:03:11;99817.72;;;15.68;100.00
4858;BME280;58975;51.978;8.472;2023-07-30T00:08:07;99840.53;;;15.72;100.00
4858;BME280;58975;51.978;8.472;2023-07-30T00:13:04;99851.56;;;15.77;100.00
4858;BME280;58975;51.978;8.472;2023-07-30T00:18:00;99863.84;;;15.79;100.00
4858;BME280;58975;51.978;8.472;2023-07-30T00:22:57;99875.72;;;15.77;100.00
4858;BME280;58975;51.978;8.472;2023-07-30T00:27:53;99876.06;;;15.74;100.00
4858;BME280;58975;51.978;8.472;2023-07-30T00:32:50;99880.44;;;15.75;100.00
4858;BME280;58975;51.978;8.472;2023-07-30T00:37:46;99885.47;;;15.70;100.00
4858;BME280;58975;51.978;8.472;2023-07-30T00:42:43;99882.44;;;15.65;100.00
4858;BME280;58975;51.978;8.472;2023-07-30T00:47:40;99876.06;;;15.57;100.00
4858;BME280;58975;51.978;8.472;2023-07-30T00:52:37;99867.03;;;15.50;100.00
4858;BME280;58975;51.978;8.472;2023-07-30T00:57:35;99856.25;;;15.42;100.00
4858;BME280;58975;51.978;8.472;2023-07-30T01:02:32;99854.06;;;15.38;100.00
4858;BME280;58975;51.978;8.472;2023-07-30T01:07:30;99847.22;;;15.35;100.00
4858;BME280;58975;51.978;8.472;2023-07-30T01:12:29;99839.50;;;15.32;100.00
4858;BME280;58975;51.978;8.472;2023-07-30T01:17:26;99850.38;;;15.23;100.00
4858;BME280;58975;51.978;8.472;2023-07-30T01:22:23;99864.63;;;15.15;100.00
4858;BME280;58975;51.978;8.472;2023-07-30T01:27:28;99864.28;;;15.18;100.00
4858;BME280;58975;51.978;8.472;2023-07-30T01:32:27;99863.59;;;15.00;100.00
4858;BME280;58975;51.978;8.472;2023-07-30T01:37:25;99866.75;;;14.87;100.00
4858;BME280;58975;51.978;8.472;2023-07-30T01:42:27;99868.56;;;14.79;100.00
4858;BME280;58975;51.978;8.472;2023-07-30T01:47:24;99870.22;;;14.72;100.00
4858;BME280;58975;51.978;8.472;2023-07-30T01:52:20;99874.41;;;14.66;100.00
4858;BME280;58975;51.978;8.472;2023-07-30T01:57:17;99876.84;;;14.51;100.00
4858;BME280;58975;51.978;8.472;2023-07-30T02:02:13;99875.44;;;14.39;100.00
4858;BME280;58975;51.978;8.472;2023-07-30T02:07:10;99865.63;;;14.22;100.00
4858;BME280;58975;51.978;8.472;2023-07-30T02:12:07;99868.72;;;14.09;100.00
4858;BME280;58975;51.978;8.472;2023-07-30T02:17:04;99867.50;;;14.04;100.00
4858;BME280;58975;51.978;8.472;2023-07-30T02:22:00;99870.53;;;14.01;100.00
4858;BME280;58975;51.978;8.472;2023-07-30T02:26:57;99872.56;;;13.81;100.00
4858;BME280;58975;51.978;8.472;2023-07-30T02:31:53;99866.53;;;13.79;100.00
4858;BME280;58975;51.978;8.472;2023-07-30T02:36:50;99870.13;;;13.96;100.00
4858;BME280;58975;51.978;8.472;2023-07-30T02:41:46;99884.94;;;14.08;100.00
4858;BME280;58975;51.978;8.472;2023-07-30T02:46:43;99876.38;;;14.04;100.00
4858;BME280;58975;51.978;8.472;2023-07-30T02:51:39;99881.97;;;14.11;100.00
4858;BME280;58975;51.978;8.472;2023-07-30T02:56:36;99899.75;;;14.20;100.00
4858;BME280;58975;51.978;8.472;2023-07-30T03:01:33;99924.75;;;14.29;100.00
4858;BME280;58975;51.978;8.472;2023-07-30T03:06:29;99931.63;;;14.31;100.00
4858;BME280;58975;51.978;8.472;2023-07-30T03:11:26;99937.94;;;14.22;100.00
4858;BME280;58975;51.978;8.472;2023-07-30T03:16:22;99936.56;;;14.18;100.00
4858;BME280;58975;51.978;8.472;2023-07-30T03:21:19;99944.16;;;14.05;100.00
4858;BME280;58975;51.978;8.472;2023-07-30T03:26:15;99950.84;;;14.01;100.00
4858;BME280;58975;51.978;8.472;2023-07-30T03:31:12;99946.78;;;13.97;100.00
4858;BME280;58975;51.978;8.472;2023-07-30T03:36:08;99932.66;;;13.87;100.00
4858;BME280;58975;51.978;8.472;2023-07-30T03:41:05;99933.88;;;13.92;100.00
4858;BME280;58975;51.978;8.472;2023-07-30T03:46:05;99929.03;;;13.96;100.00
4858;BME280;58975;51.978;8.472;2023-07-30T03:51:01;99932.22;;;13.91;100.00
4858;BME280;58975;51.978;8.472;2023-07-30T03:55:59;99924.00;;;13.93;100.00
4858;BME280;58975;51.978;8.472;2023-07-30T04:00:55;99902.06;;;13.89;100.00
4858;BME280;58975;51.978;8.472;2023-07-30T04:05:51;99898.00;;;13.85;100.00
4858;BME280;58975;51.978;8.472;2023-07-30T04:10:48;99889.72;;;13.70;100.00
4858;BME280;58975;51.978;8.472;2023-07-30T04:15:47;99874.34;;;13.72;100.00
4858;BME280;58975;51.978;8.472;2023-07-30T04:20:43;99864.28;;;13.66;100.00
4858;BME280;58975;51.978;8.472;2023-07-30T04:25:40;99850.25;;;13.72;100.00
4858;BME280;58975;51.978;8.472;2023-07-30T04:30:37;99840.78;;;13.78;100.00
4858;BME280;58975;51.978;8.472;2023-07-30T04:35:33;99843.66;;;13.85;100.00
4858;BME280;58975;51.978;8.472;2023-07-30T04:40:30;99831.44;;;13.82;100.00
4858;BME280;58975;51.978;8.472;2023-07-30T04:45:26;99813.06;;;13.87;100.00
4858;BME280;58975;51.978;8.472;2023-07-30T04:50:22;99810.63;;;14.02;100.00
4858;BME280;58975;51.978;8.472;2023-07-30T04:55:19;99804.16;;;14.12;100.00
4858;BME280;58975;51.978;8.472;2023-07-30T05:00:16;99810.38;;;14.21;100.00
4858;BME280;58975;51.978;8.472;2023-07-30T05:05:13;99810.41;;;14.29;100.00
4858;BME280;58975;51.978;8.472;2023-07-30T05:10:09;99795.75;;;14.41;100.00
4858;BME280;58975;51.978;8.472;2023-07-30T05:15:07;99800.50;;;14.63;100.00
4858;BME280;58975;51.978;8.472;2023-07-30T05:20:04;99782.94;;;14.69;100.00
4858;BME280;58975;51.978;8.472;2023-07-30T05:25:01;99789.81;;;14.72;100.00
4858;BME280;58975;51.978;8.472;2023-07-30T05:29:58;99785.44;;;14.71;100.00
4858;BME280;58975;51.978;8.472;2023-07-30T05:34:54;99780.44;;;14.84;100.00
4858;BME280;58975;51.978;8.472;2023-07-30T05:39:51;99773.75;;;14.88;100.00
4858;BME280;58975;51.978;8.472;2023-07-30T05:44:47;99773.75;;;14.80;100.00
4858;BME280;58975;51.978;8.472;2023-07-30T05:49:43;99768.72;;;14.85;100.00
4858;BME280;58975;51.978;8.472;2023-07-30T05:54:40;99777.09;;;14.98;100.00
4858;BME280;58975;51.978;8.472;2023-07-30T05:59:37;99776.59;;;15.10;100.00
4858;BME280;58975;51.978;8.472;2023-07-30T06:04:33;99780.78;;;15.29;100.00
4858;BME280;58975;51.978;8.472;2023-07-30T06:09:30;99778.13;;;15.53;100.00
4858;BME280;58975;51.978;8.472;2023-07-30T06:14:27;99786.16;;;15.45;100.00
4858;BME280;58975;51.978;8.472;2023-07-30T06:19:23;99793.56;;;15.59;100.00
4858;BME280;58975;51.978;8.472;2023-07-30T06:24:20;99793.91;;;15.40;100.00
4858;BME280;58975;51.978;8.472;2023-07-30T06:29:16;99787.84;;;15.30;100.00
4858;BME280;58975;51.978;8.472;2023-07-30T06:34:13;99794.41;;;15.36;100.00
4858;BME280;58975;51.978;8.472;2023-07-30T06:39:09;99785.16;;;15.46;100.00
4858;BME280;58975;51.978;8.472;2023-07-30T06:44:06;99791.03;;;15.26;100.00
4858;BME280;58975;51.978;8.472;2023-07-30T06:49:02;99802.09;;;15.39;100.00
4858;BME280;58975;51.978;8.472;2023-07-30T06:53:59;99810.66;;;15.50;100.00
4858;BME280;58975;51.978;8.472;2023-07-30T06:58:55;99815.50;;;15.47;100.00
4858;BME280;58975;51.978;8.472;2023-07-30T07:03:52;99811.66;;;15.41;100.00
4858;BME280;58975;51.978;8.472;2023-07-30T07:08:48;99826.41;;;15.37;100.00
4858;BME280;58975;51.978;8.472;2023-07-30T07:13:45;99820.72;;;15.48;100.00
4858;BME280;58975;51.978;8.472;2023-07-30T07:18:41;99833.13;;;15.49;100.00
4858;BME280;58975;51.978;8.472;2023-07-30T07:23:38;99833.78;;;15.43;100.00
4858;BME280;58975;51.978;8.472;2023-07-30T07:28:34;99840.50;;;15.39;100.00
4858;BME280;58975;51.978;8.472;2023-07-30T07:33:31;99840.66;;;15.30;100.00
4858;BME280;58975;51.978;8.472;2023-07-30T07:38:27;99843.53;;;15.28;100.00
4858;BME280;58975;51.978;8.472;2023-07-30T07:43:24;99845.03;;;15.39;100.00
4858;BME280;58975;51.978;8.472;2023-07-30T07:48:21;99839.81;;;15.29;100.00
4858;BME280;58975;51.978;8.472;2023-07-30T07:53:17;99837.47;;;15.18;100.00
4858;BME280;58975;51.978;8.472;2023-07-30T07:58:14;99840.13;;;15.10;100.00
4858;BME280;58975;51.978;8.472;2023-07-30T08:03:10;99840.47;;;15.15;100.00
4858;BME280;58975;51.978;8.472;2023-07-30T08:08:07;99844.03;;;15.24;100.00
4858;BME280;58975;51.978;8.472;2023-07-30T08:13:03;99844.50;;;15.19;100.00
4858;BME280;58975;51.978;8.472;2023-07-30T08:18:00;99835.28;;;15.38;100.00
4858;BME280;58975;51.978;8.472;2023-07-30T08:22:56;99843.31;;;15.22;100.00
4858;BME280;58975;51.978;8.472;2023-07-30T08:27:52;99834.28;;;15.23;100.00
4858;BME280;58975;51.978;8.472;2023-07-30T08:32:49;99835.13;;;15.39;100.00
4858;BME280;58975;51.978;8.472;2023-07-30T08:37:45;99833.78;;;15.35;100.00
4858;BME280;58975;51.978;8.472;2023-07-30T08:42:42;99843.19;;;15.39;100.00
4858;BME280;58975;51.978;8.472;2023-07-30T08:47:39;99852.06;;;15.40;100.00
4858;BME280;58975;51.978;8.472;2023-07-30T08:52:38;99857.25;;;15.33;100.00
4858;BME280;58975;51.978;8.472;2023-07-30T08:57:35;99852.56;;;15.43;100.00
4858;BME280;58975;51.978;8.472;2023-07-30T09:02:38;99841.50;;;15.30;100.00
4858;BME280;58975;51.978;8.472;2023-07-30T09:07:35;99852.75;;;15.50;100.00
4858;BME280;58975;51.978;8.472;2023-07-30T09:12:33;99855.28;;;15.51;100.00
4858;BME280;58975;51.978;8.472;2023-07-30T09:17:30;99859.97;;;15.57;100.00
4858;BME280;58975;51.978;8.472;2023-07-30T09:22:27;99863.00;;;15.63;100.00
4858;BME280;58975;51.978;8.472;2023-07-30T09:27:25;99866.69;;;15.61;100.00
4858;BME280;58975;51.978;8.472;2023-07-30T09:32:32;99856.94;;;15.69;100.00
4858;BME280;58975;51.978;8.472;2023-07-30T09:37:29;99869.69;;;15.83;100.00
4858;BME280;58975;51.978;8.472;2023-07-30T09:42:29;99873.22;;;15.91;100.00
4858;BME280;58975;51.978;8.472;2023-07-30T09:47:26;99877.06;;;15.97;100.00
4858;BME280;58975;51.978;8.472;2023-07-30T09:52:23;99883.41;;;16.04;100.00
4858;BME280;58975;51.978;8.472;2023-07-30T09:57:19;99893.81;;;16.15;100.00
4858;BME280;58975;51.978;8.472;2023-07-30T10:02:17;99897.53;;;16.06;100.00
4858;BME280;58975;51.978;8.472;2023-07-30T10:07:16;99904.59;;;15.91;100.00
4858;BME280;58975;51.978;8.472;2023-07-30T10:12:16;99906.31;;;16.47;100.00
4858;BME280;58975;51.978;8.472;2023-07-30T10:17:16;99905.38;;;16.79;100.00
4858;BME280;58975;51.978;8.472;2023-07-30T10:22:19;99898.56;;;16.99;100.00
4858;BME280;58975;51.978;8.472;2023-07-30T10:27:23;99901.19;;;17.61;100.00
4858;BME280;58975;51.978;8.472;2023-07-30T10:32:19;99907.13;;;17.25;100.00
4858;BME280;58975;51.978;8.472;2023-07-30T10:37:24;99897.94;;;17.42;100.00
4858;BME280;58975;51.978;8.472;2023-07-30T10:42:21;99878.84;;;18.41;100.00
4858;BME280;58975;51.978;8.472;2023-07-30T10:47:18;99889.09;;;18.61;100.00
4858;BME280;58975;51.978;8.472;2023-07-30T10:52:32;99889.28;;;19.10;100.00
4858;BME280;58975;51.978;8.472;2023-07-30T10:57:31;99878.00;;;20.12;100.00
4858;BME280;58975;51.978;8.472;2023-07-30T11:02:28;99881.22;;;19.73;100.00
4858;BME280;58975;51.978;8.472;2023-07-30T11:07:26;99882.47;;;19.71;100.00
4858;BME280;58975;51.978;8.472;2023-07-30T11:12:22;99879.38;;;20.02;100.00
4858;BME280;58975;51.978;8.472;2023-07-30T11:17:19;99882.91;;;18.96;100.00
4858;BME280;58975;51.978;8.472;2023-07-30T11:22:16;99874.69;;;19.04;100.00
4858;BME280;58975;51.978;8.472;2023-07-30T11:27:26;99868.69;;;19.66;100.00
4858;BME280;58975;51.978;8.472;2023-07-30T11:32:22;99863.34;;;19.09;100.00
4858;BME280;58975;51.978;8.472;2023-07-30T11:37:22;99867.13;;;19.14;100.00
4858;BME280;58975;51.978;8.472;2023-07-30T11:42:19;99863.13;;;19.67;100.00
4858;BME280;58975;51.978;8.472;2023-07-30T11:47:22;99856.66;;;19.96;100.00
4858;BME280;58975;51.978;8.472;2023-07-30T11:52:19;99856.88;;;20.22;100.00
4858;BME280;58975;51.978;8.472;2023-07-30T11:57:15;99857.91;;;19.94;100.00
4858;BME280;58975;51.978;8.472;2023-07-30T12:02:17;99867.50;;;19.11;100.00
4858;BME280;58975;51.978;8.472;2023-07-30T12:07:22;99870.25;;;18.82;100.00
4858;BME280;58975;51.978;8.472;2023-07-30T12:12:19;99884.50;;;18.47;100.00
4858;BME280;58975;51.978;8.472;2023-07-30T12:17:15;99900.88;;;17.78;100.00
4858;BME280;58975;51.978;8.472;2023-07-30T12:22:12;99887.66;;;17.23;100.00
4858;BME280;58975;51.978;8.472;2023-07-30T12:27:08;99891.81;;;17.26;100.00
4858;BME280;58975;51.978;8.472;2023-07-30T12:32:05;99890.66;;;17.51;100.00
4858;BME280;58975;51.978;8.472;2023-07-30T12:37:03;99890.34;;;17.69;100.00
4858;BME280;58975;51.978;8.472;2023-07-30T12:41:59;99893.34;;;18.11;100.00
4858;BME280;58975;51.978;8.472;2023-07-30T12:46:56;99905.72;;;18.79;100.00
4858;BME280;58975;51.978;8.472;2023-07-30T12:51:52;99893.75;;;19.81;100.00
4858;BME280;58975;51.978;8.472;2023-07-30T12:56:49;99893.28;;;19.71;100.00
4858;BME280;58975;51.978;8.472;2023-07-30T13:01:45;99890.28;;;19.23;100.00
4858;BME280;58975;51.978;8.472;2023-07-30T13:06:44;99896.78;;;18.93;100.00
4858;BME280;58975;51.978;8.472;2023-07-30T13:11:40;99895.41;;;18.68;100.00
4858;BME280;58975;51.978;8.472;2023-07-30T13:16:37;99907.13;;;18.46;100.00
4858;BME280;58975;51.978;8.472;2023-07-30T13:21:33;99901.47;;;18.55;100.00
4858;BME280;58975;51.978;8.472;2023-07-30T13:26:30;99907.22;;;18.23;100.00
4858;BME280;58975;51.978;8.472;2023-07-30T13:31:26;99922.72;;;17.61;100.00
4858;BME280;58975;51.978;8.472;2023-07-30T13:36:23;99939.38;;;16.55;100.00
4858;BME280;58975;51.978;8.472;2023-07-30T13:41:20;99972.06;;;15.64;100.00
4858;BME280;58975;51.978;8.472;2023-07-30T13:46:16;99974.91;;;15.12;100.00
4858;BME280;58975;51.978;8.472;2023-07-30T13:51:13;99948.59;;;15.07;100.00
4858;BME280;58975;51.978;8.472;2023-07-30T13:56:09;99940.13;;;15.44;100.00
4858;BME280;58975;51.978;8.472;2023-07-30T14:01:06;99936.47;;;15.70;100.00
4858;BME280;58975;51.978;8.472;2023-07-30T14:06:03;99930.44;;;15.68;100.00
4858;BME280;58975;51.978;8.472;2023-07-30T14:10:59;99926.25;;;15.81;100.00
4858;BME280;58975;51.978;8.472;2023-07-30T14:15:56;99926.88;;;16.16;100.00
4858;BME280;58975;51.978;8.472;2023-07-30T14:20:53;99917.47;;;16.83;100.00
4858;BME280;58975;51.978;8.472;2023-07-30T14:25:49;99915.13;;;17.87;100.00
4858;BME280;58975;51.978;8.472;2023-07-30T14:30:46;99905.94;;;17.96;100.00
4858;BME280;58975;51.978;8.472;2023-07-30T14:35:42;99905.53;;;18.36;100.00
4858;BME280;58975;51.978;8.472;2023-07-30T14:40:39;99901.13;;;18.58;100.00
4858;BME280;58975;51.978;8.472;2023-07-30T14:45:36;99900.91;;;19.10;100.00
4858;BME280;58975;51.978;8.472;2023-07-30T14:50:32;99893.13;;;19.01;100.00
4858;BME280;58975;51.978;8.472;2023-07-30T14:55:29;99899.41;;;18.42;100.00
4858;BME280;58975;51.978;8.472;2023-07-30T15:00:25;99912.13;;;18.34;100.00
4858;BME280;58975;51.978;8.472;2023-07-30T15:05:22;99900.72;;;18.61;100.00
4858;BME280;58975;51.978;8.472;2023-07-30T15:10:19;99901.72;;;18.46;100.00
4858;BME280;58975;51.978;8.472;2023-07-30T15:15:15;99894.50;;;18.61;100.00
4858;BME280;58975;51.978;8.472;2023-07-30T15:20:12;99891.03;;;19.17;100.00
4858;BME280;58975;51.978;8.472;2023-07-30T15:25:09;99883.44;;;19.06;100.00
4858;BME280;58975;51.978;8.472;2023-07-30T15:30:06;99890.84;;;18.83;100.00
4858;BME280;58975;51.978;8.472;2023-07-30T15:35:02;99899.84;;;18.90;100.00
4858;BME280;58975;51.978;8.472;2023-07-30T15:39:59;99907.84;;;18.83;100.00
4858;BME280;58975;51.978;8.472;2023-07-30T15:44:55;99894.69;;;19.46;100.00
4858;BME280;58975;51.978;8.472;2023-07-30T15:49:52;99893.97;;;19.79;100.00
4858;BME280;58975;51.978;8.472;2023-07-30T15:54:48;99891.75;;;19.90;100.00
4858;BME280;58975;51.978;8.472;2023-07-30T15:59:48;99896.03;;;20.05;100.00
4858;BME280;58975;51.978;8.472;2023-07-30T16:04:46;99892.25;;;19.72;100.00
4858;BME280;58975;51.978;8.472;2023-07-30T16:09:43;99886.41;;;19.47;100.00
4858;BME280;58975;51.978;8.472;2023-07-30T16:14:39;99898.16;;;19.61;100.00
4858;BME280;58975;51.978;8.472;2023-07-30T16:19:36;99893.13;;;19.58;100.00
4858;BME280;58975;51.978;8.472;2023-07-30T16:24:32;99894.28;;;19.49;100.00
4858;BME280;58975;51.978;8.472;2023-07-30T16:29:29;99884.94;;;19.72;100.00
4858;BME280;58975;51.978;8.472;2023-07-30T16:34:25;99872.25;;;19.94;100.00
4858;BME280;58975;51.978;8.472;2023-07-30T16:39:22;99895.03;;;19.85;100.00
4858;BME280;58975;51.978;8.472;2023-07-30T16:44:18;99904.94;;;19.35;100.00
4858;BME280;58975;51.978;8.472;2023-07-30T16:49:15;99896.81;;;19.14;100.00
4858;BME280;58975;51.978;8.472;2023-07-30T16:54:11;99904.94;;;19.00;100.00
4858;BME280;58975;51.978;8.472;2023-07-30T16:59:10;99901.75;;;19.47;100.00
4858;BME280;58975;51.978;8.472;2023-07-30T17:04:06;99912.31;;;20.74;100.00
4858;BME280;58975;51.978;8.472;2023-07-30T17:09:03;99915.75;;;19.99;100.00
4858;BME280;58975;51.978;8.472;2023-07-30T17:13:59;99926.53;;;19.71;100.00
4858;BME280;58975;51.978;8.472;2023-07-30T17:18:56;99922.72;;;19.87;100.00
4858;BME280;58975;51.978;8.472;2023-07-30T17:23:52;99922.66;;;19.59;100.00
4858;BME280;58975;51.978;8.472;2023-07-30T17:28:49;99927.22;;;19.23;100.00
4858;BME280;58975;51.978;8.472;2023-07-30T17:33:45;99928.88;;;18.88;100.00
4858;BME280;58975;51.978;8.472;2023-07-30T17:38:43;99928.53;;;18.62;100.00
4858;BME280;58975;51.978;8.472;2023-07-30T17:43:40;99929.66;;;18.53;100.00
4858;BME280;58975;51.978;8.472;2023-07-30T17:48:36;99932.69;;;18.50;100.00
4858;BME280;58975;51.978;8.472;2023-07-30T17:53:33;99924.03;;;18.39;100.00
4858;BME280;58975;51.978;8.472;2023-07-30T17:58:29;99938.88;;;18.35;100.00
4858;BME280;58975;51.978;8.472;2023-07-30T18:03:26;99924.47;;;18.28;100.00
4858;BME280;58975;51.978;8.472;2023-07-30T18:08:22;99919.16;;;18.20;100.00
4858;BME280;58975;51.978;8.472;2023-07-30T18:13:20;99933.50;;;18.21;100.00
4858;BME280;58975;51.978;8.472;2023-07-30T18:18:17;99930.69;;;18.14;100.00
4858;BME280;58975;51.978;8.472;2023-07-30T18:23:16;99927.06;;;18.07;100.00
4858;BME280;58975;51.978;8.472;2023-07-30T18:28:12;99936.16;;;18.06;100.00
4858;BME280;58975;51.978;8.472;2023-07-30T18:33:09;99937.53;;;18.02;100.00
4858;BME280;58975;51.978;8.472;2023-07-30T18:38:07;99932.53;;;17.99;100.00
4858;BME280;58975;51.978;8.472;2023-07-30T18:43:04;99923.31;;;17.93;100.00
4858;BME280;58975;51.978;8.472;2023-07-30T18:48:01;99927.47;;;17.96;100.00
4858;BME280;58975;51.978;8.472;2023-07-30T18:53:00;99931.75;;;17.90;100.00
4858;BME280;58975;51.978;8.472;2023-07-30T18:57:57;99930.63;;;17.85;100.00
4858;BME280;58975;51.978;8.472;2023-07-30T19:02:54;99930.25;;;17.88;100.00
4858;BME280;58975;51.978;8.472;2023-07-30T19:07:50;99911.13;;;17.83;100.00
4858;BME280;58975;51.978;8.472;2023-07-30T19:12:47;99936.06;;;17.77;100.00
4858;BME280;58975;51.978;8.472;2023-07-30T19:17:43;99934.81;;;17.65;100.00
4858;BME280;58975;51.978;8.472;2023-07-30T19:22:40;99935.84;;;17.64;100.00
4858;BME280;58975;51.978;8.472;2023-07-30T19:27:37;99928.66;;;17.56;100.00
4858;BME280;58975;51.978;8.472;2023-07-30T19:32:35;99920.78;;;17.46;100.00
4858;BME280;58975;51.978;8.472;2023-07-30T19:37:32;99920.78;;;17.46;100.00
4858;BME280;58975;51.978;8.472;2023-07-30T19:42:28;99931.72;;;17.45;100.00
4858;BME280;58975;51.978;8.472;2023-07-30T19:47:25;99920.63;;;17.17;100.00
4858;BME280;58975;51.978;8.472;2023-07-30T19:52:23;99926.38;;;17.14;100.00
4858;BME280;58975;51.978;8.472;2023-07-30T19:57:22;99919.19;;;17.07;100.00
4858;BME280;58975;51.978;8.472;2023-07-30T20:02:19;99912.50;;;17.02;100.00
4858;BME280;58975;51.978;8.472;2023-07-30T20:07:16;99908.78;;;17.03;100.00
4858;BME280;58975;51.978;8.472;2023-07-30T20:12:12;99922.84;;;16.83;100.00
4858;BME280;58975;51.978;8.472;2023-07-30T20:17:09;99924.91;;;16.73;100.00
4858;BME280;58975;51.978;8.472;2023-07-30T20:22:05;99935.13;;;17.16;100.00
4858;BME280;58975;51.978;8.472;2023-07-30T20:27:08;99939.31;;;17.41;100.00
4858;BME280;58975;51.978;8.472;2023-07-30T20:32:04;99948.59;;;17.39;100.00
4858;BME280;58975;51.978;8.472;2023-07-30T20:37:01;99963.16;;;16.91;100.00
4858;BME280;58975;51.978;8.472;2023-07-30T20:41:58;99988.16;;;15.88;100.00
4858;BME280;58975;51.978;8.472;2023-07-30T20:46:54;99982.63;;;15.15;100.00
4858;BME280;58975;51.978;8.472;2023-07-30T20:51:51;99970.78;;;14.84;100.00
4858;BME280;58975;51.978;8.472;2023-07-30T20:56:47;99963.34;;;14.70;100.00
4858;BME280;58975;51.978;8.472;2023-07-30T21:01:44;99973.38;;;14.67;100.00
4858;BME280;58975;51.978;8.472;2023-07-30T21:06:41;99979.59;;;14.68;100.00
4858;BME280;58975;51.978;8.472;2023-07-30T21:11:37;99985.66;;;14.78;100.00
4858;BME280;58975;51.978;8.472;2023-07-30T21:16:34;99982.69;;;14.81;100.00
4858;BME280;58975;51.978;8.472;2023-07-30T21:21:30;99982.53;;;14.91;100.00
4858;BME280;58975;51.978;8.472;2023-07-30T21:26:27;99983.84;;;14.87;100.00
4858;BME280;58975;51.978;8.472;2023-07-30T21:31:23;99988.88;;;14.90;100.00
4858;BME280;58975;51.978;8.472;2023-07-30T21:36:20;99985.91;;;14.93;100.00
4858;BME280;58975;51.978;8.472;2023-07-30T21:41:16;99988.59;;;14.93;100.00
4858;BME280;58975;51.978;8.472;2023-07-30T21:46:13;99991.28;;;14.93;100.00
4858;BME280;58975;51.978;8.472;2023-07-30T21:51:09;99986.06;;;14.91;100.00
4858;BME280;58975;51.978;8.472;2023-07-30T21:56:06;99993.44;;;14.89;100.00
4858;BME280;58975;51.978;8.472;2023-07-30T22:01:03;99980.19;;;14.88;100.00
4858;BME280;58975;51.978;8.472;2023-07-30T22:05:59;99987.75;;;14.92;100.00
4858;BME280;58975;51.978;8.472;2023-07-30T22:10:56;99993.47;;;14.97;100.00
4858;BME280;58975;51.978;8.472;2023-07-30T22:15:52;99971.47;;;14.94;100.00
4858;BME280;58975;51.978;8.472;2023-07-30T22:20:49;99960.63;;;15.03;100.00
4858;BME280;58975;51.978;8.472;2023-07-30T22:25:45;99949.25;;;15.01;100.00
4858;BME280;58975;51.978;8.472;2023-07-30T22:30:42;99950.25;;;15.00;100.00
4858;BME280;58975;51.978;8.472;2023-07-30T22:35:38;99954.28;;;15.04;100.00
4858;BME280;58975;51.978;8.472;2023-07-30T22:40:37;99944.69;;;15.02;100.00
4858;BME280;58975;51.978;8.472;2023-07-30T22:45:35;99938.81;;;14.98;100.00
4858;BME280;58975;51.978;8.472;2023-07-30T22:50:32;99941.34;;;15.00;100.00
4858;BME280;58975;51.978;8.472;2023-07-30T22:55:28;99937.84;;;14.99;100.00
4858;BME280;58975;51.978;8.472;2023-07-30T23:00:24;99938.19;;;15.04;100.00
4858;BME280;58975;51.978;8.472;2023-07-30T23:05:21;99935.66;;;15.03;100.00
4858;BME280;58975;51.978;8.472;2023-07-30T23:10:17;99931.81;;;14.97;100.00
4858;BME280;58975;51.978;8.472;2023-07-30T23:15:16;99929.94;;;14.98;100.00
4858;BME280;58975;51.978;8.472;2023-07-30T23:20:13;99926.97;;;15.01;100.00
4858;BME280;58975;51.978;8.472;2023-07-30T23:25:10;99917.06;;;15.01;100.00
4858;BME280;58975;51.978;8.472;2023-07-30T23:30:06;99916.53;;;14.98;100.00
4858;BME280;58975;51.978;8.472;2023-07-30T23:35:03;99905.28;;;14.94;100.00
4858;BME280;58975;51.978;8.472;2023-07-30T23:40:00;99903.78;;;14.92;100.00
4858;BME280;58975;51.978;8.472;2023-07-30T23:44:56;99910.16;;;14.99;100.00
4858;BME280;58975;51.978;8.472;2023-07-30T23:49:53;99897.47;;;15.01;100.00
4858;BME280;58975;51.978;8.472;2023-07-30T23:54:50;99897.59;;;14.99;100.00
4858;BME280;58975;51.978;8.472;2023-07-30T23:59:46;99892.09;;;15.01;100.00
